createdAt,value
2022-10-12T00:01:42.204Z,12.40
2022-10-12T00:06:46.882Z,12.40
2022-10-12T00:11:50.222Z,12.40
2022-10-12T00:16:53.580Z,12.30
2022-10-12T00:21:58.252Z,12.30
2022-10-12T00:27:01.495Z,12.20
2022-10-12T00:32:05.053Z,12.20
2022-10-12T00:37:09.681Z,12.20
2022-10-12T00:42:13.882Z,12.10
2022-10-12T00:47:34.608Z,12.10
2022-10-12T00:52:45.029Z,12.10
2022-10-12T00:57:49.563Z,11.90
2022-10-12T01:02:55.457Z,11.70
2022-10-12T01:08:00.827Z,11.70
2022-10-12T01:13:05.164Z,11.70
2022-10-12T01:18:15.453Z,11.70
2022-10-12T01:24:10.636Z,11.80
2022-10-12T01:29:31.504Z,11.90
2022-10-12T01:34:45.552Z,11.90
2022-10-12T01:39:53.863Z,11.90
2022-10-12T01:45:03.780Z,11.80
2022-10-12T01:50:13.604Z,11.80
2022-10-12T01:55:29.449Z,11.80
2022-10-12T02:00:40.886Z,11.80
2022-10-12T02:05:49.269Z,11.70
2022-10-12T02:10:58.331Z,11.80
2022-10-12T02:16:05.688Z,11.70
2022-10-12T02:21:32.473Z,11.70
2022-10-12T02:26:39.120Z,11.70
2022-10-12T02:31:50.141Z,11.70
2022-10-12T02:37:04.157Z,11.70
2022-10-12T02:42:11.249Z,11.70
2022-10-12T02:47:15.631Z,11.70
2022-10-12T02:52:20.317Z,11.70
2022-10-12T02:57:23.498Z,11.70
2022-10-12T03:02:26.737Z,11.70
2022-10-12T03:07:31.332Z,11.70
2022-10-12T03:12:35.214Z,11.70
2022-10-12T03:17:44.644Z,11.70
2022-10-12T03:22:50.097Z,11.70
2022-10-12T03:27:53.418Z,11.70
2022-10-12T03:32:56.745Z,11.70
2022-10-12T03:38:03.692Z,11.70
2022-10-12T03:43:06.988Z,11.80
2022-10-12T03:48:10.816Z,11.70
2022-10-12T03:53:15.532Z,11.70
2022-10-12T03:58:20.352Z,11.70
2022-10-12T04:03:23.927Z,11.70
2022-10-12T04:08:28.702Z,11.70
2022-10-12T04:13:32.059Z,11.70
2022-10-12T04:18:35.985Z,11.70
2022-10-12T04:23:45.746Z,11.70
2022-10-12T04:28:49.053Z,11.70
2022-10-12T04:33:56.921Z,11.70
2022-10-12T04:39:01.707Z,11.70
2022-10-12T04:44:08.406Z,11.70
2022-10-12T04:49:11.693Z,11.70
2022-10-12T04:54:16.751Z,11.70
2022-10-12T04:59:20.035Z,11.70
2022-10-12T05:04:23.488Z,11.70
2022-10-12T05:09:28.262Z,11.70
2022-10-12T05:14:35.905Z,11.70
2022-10-12T05:19:39.466Z,11.80
2022-10-12T05:24:44.100Z,11.80
2022-10-12T05:29:47.492Z,11.80
2022-10-12T05:34:51.969Z,11.80
2022-10-12T05:39:56.743Z,11.80
2022-10-12T05:45:00.194Z,11.80
2022-10-12T05:50:03.628Z,11.80
2022-10-12T05:55:09.554Z,11.90
2022-10-12T06:00:13.614Z,11.90
2022-10-12T06:05:17.781Z,11.90
2022-10-12T06:10:27.652Z,11.90
2022-10-12T06:15:33.053Z,12.00
2022-10-12T06:20:36.364Z,12.00
2022-10-12T06:25:41.048Z,12.10
2022-10-12T06:30:45.348Z,12.10
2022-10-12T06:35:48.740Z,12.20
2022-10-12T06:40:54.558Z,12.30
2022-10-12T06:46:02.060Z,12.40
2022-10-12T06:51:05.763Z,12.50
2022-10-12T06:56:12.284Z,12.60
2022-10-12T07:01:15.992Z,12.70
2022-10-12T07:06:19.354Z,12.80
2022-10-12T07:11:24.373Z,12.90
2022-10-12T07:16:29.365Z,13.10
2022-10-12T07:21:36.033Z,13.20
2022-10-12T07:26:41.937Z,13.50
2022-10-12T07:31:49.774Z,13.80
2022-10-12T07:36:59.593Z,14.00
2022-10-12T07:42:04.863Z,14.10
2022-10-12T07:47:08.362Z,14.10
2022-10-12T07:52:12.007Z,14.30
2022-10-12T07:57:16.895Z,14.20
2022-10-12T08:02:20.239Z,14.20
2022-10-12T08:07:23.587Z,14.30
2022-10-12T08:12:28.355Z,14.50
2022-10-12T08:17:31.571Z,14.90
2022-10-12T08:22:35.021Z,15.10
2022-10-12T08:27:39.960Z,15.00
2022-10-12T08:32:43.580Z,15.00
2022-10-12T08:37:46.908Z,15.10
2022-10-12T08:42:58.077Z,15.20
2022-10-12T08:48:10.394Z,15.30
2022-10-12T08:53:23.100Z,15.50
2022-10-12T08:58:33.425Z,15.60
2022-10-12T09:03:50.525Z,15.70
2022-10-12T09:09:06.499Z,15.70
2022-10-12T09:14:17.403Z,15.60
2022-10-12T09:19:22.790Z,15.60
2022-10-12T09:24:35.390Z,15.70
2022-10-12T09:29:40.360Z,15.90
2022-10-12T09:34:44.603Z,15.90
2022-10-12T09:39:48.497Z,15.80
2022-10-12T09:44:58.515Z,15.70
2022-10-12T09:50:03.262Z,15.80
2022-10-12T09:55:20.943Z,15.90
2022-10-12T10:00:29.416Z,16.00
2022-10-12T10:05:37.664Z,16.00
2022-10-12T10:10:55.089Z,16.00
2022-10-12T10:16:09.734Z,16.10
2022-10-12T10:21:19.456Z,16.20
2022-10-12T10:26:25.276Z,16.20
2022-10-12T10:31:30.313Z,16.30
2022-10-12T10:36:38.780Z,16.40
2022-10-12T10:41:43.997Z,16.50
2022-10-12T10:46:48.653Z,16.60
2022-10-12T10:51:57.050Z,16.50
2022-10-12T10:57:07.513Z,16.50
2022-10-12T11:02:23.012Z,16.50
2022-10-12T11:07:31.551Z,16.70
2022-10-12T11:12:43.778Z,16.80
2022-10-12T11:17:51.765Z,16.80
2022-10-12T11:22:58.892Z,16.60
2022-10-12T11:28:02.512Z,16.80
2022-10-12T11:33:09.615Z,16.70
2022-10-12T11:38:19.952Z,17.20
2022-10-12T11:43:27.086Z,17.60
2022-10-12T11:48:37.624Z,17.70
2022-10-12T11:53:50.425Z,17.70
2022-10-12T11:59:01.372Z,17.80
2022-10-12T12:04:47.750Z,17.80
2022-10-12T12:09:52.508Z,18.00
2022-10-12T12:15:08.176Z,18.20
2022-10-12T12:20:45.135Z,18.00
2022-10-12T12:26:13.133Z,17.90
2022-10-12T12:31:28.394Z,17.80
2022-10-12T12:36:37.113Z,17.80
2022-10-12T12:41:57.670Z,18.10
2022-10-12T12:47:44.438Z,18.10
2022-10-12T12:52:47.212Z,18.10
2022-10-12T12:58:31.487Z,18.10
2022-10-12T13:04:01.330Z,18.30
2022-10-12T13:09:36.444Z,18.40
2022-10-12T13:15:04.707Z,18.20
2022-10-12T13:20:18.702Z,18.30
2022-10-12T13:25:29.940Z,18.50
2022-10-12T13:30:42.023Z,18.20
2022-10-12T13:35:50.086Z,18.20
2022-10-12T13:41:02.471Z,17.80
2022-10-12T13:46:06.884Z,17.90
2022-10-12T13:51:24.455Z,17.70
2022-10-12T13:56:30.056Z,17.60
2022-10-12T14:01:35.624Z,17.50
2022-10-12T14:06:40.539Z,17.40
2022-10-12T14:11:44.928Z,17.20
2022-10-12T14:16:48.336Z,17.00
2022-10-12T14:21:54.620Z,17.10
2022-10-12T14:27:00.794Z,17.10
2022-10-12T14:32:06.006Z,17.10
2022-10-12T14:37:25.354Z,17.20
2022-10-12T14:42:31.955Z,17.20
2022-10-12T14:47:39.946Z,17.10
2022-10-12T14:52:47.779Z,17.10
2022-10-12T14:57:52.382Z,17.10
2022-10-12T15:02:56.190Z,17.10
2022-10-12T15:08:08.945Z,17.00
2022-10-12T15:13:14.642Z,16.90
2022-10-12T15:18:21.212Z,16.80
2022-10-12T15:28:54.668Z,16.50
2022-10-12T15:34:02.372Z,16.60
2022-10-12T15:39:08.418Z,16.60
2022-10-12T15:44:17.333Z,16.60
2022-10-12T15:49:26.872Z,16.40
2022-10-12T15:54:31.501Z,16.10
2022-10-12T15:59:35.164Z,15.80
2022-10-12T16:04:38.550Z,15.50
2022-10-12T16:09:43.750Z,15.20
2022-10-12T16:14:47.038Z,14.90
2022-10-12T16:19:50.324Z,14.70
2022-10-12T16:24:55.132Z,14.50
2022-10-12T16:29:58.341Z,14.40
2022-10-12T16:35:01.683Z,14.20
2022-10-12T16:40:09.160Z,14.10
2022-10-12T16:45:13.164Z,13.80
2022-10-12T16:50:16.906Z,13.60
2022-10-12T16:55:22.112Z,13.40
2022-10-12T17:00:25.418Z,13.30
2022-10-12T17:05:28.842Z,13.10
2022-10-12T17:10:33.482Z,12.90
2022-10-12T17:15:41.134Z,12.90
2022-10-12T17:20:46.309Z,12.90
2022-10-12T17:26:00.232Z,12.90
2022-10-12T17:31:10.712Z,12.90
2022-10-12T17:42:31.480Z,12.70
2022-10-12T17:47:34.888Z,12.60
2022-10-12T17:52:40.730Z,12.70
2022-10-12T17:57:45.471Z,12.60
2022-10-12T18:02:48.897Z,12.40
2022-10-12T18:07:52.379Z,12.40
2022-10-12T18:13:00.041Z,12.20
2022-10-12T18:18:04.287Z,12.10
2022-10-12T18:23:07.543Z,12.10
2022-10-12T18:28:13.181Z,12.00
2022-10-12T18:33:25.308Z,11.90
2022-10-12T18:38:29.353Z,11.80
2022-10-12T18:43:34.319Z,11.80
2022-10-12T18:48:37.568Z,11.60
2022-10-12T18:53:40.818Z,11.50
2022-10-12T18:58:45.644Z,11.40
2022-10-12T19:03:59.774Z,11.10
2022-10-12T19:09:03.298Z,10.90
2022-10-12T19:14:15.287Z,10.70
2022-10-12T19:24:49.372Z,10.60
2022-10-12T19:30:05.017Z,10.50
2022-10-12T19:35:08.964Z,10.40
2022-10-12T19:40:14.454Z,10.40
2022-10-12T19:45:22.191Z,10.60
2022-10-12T19:50:25.444Z,10.70
2022-10-12T19:55:28.761Z,10.70
2022-10-12T20:00:37.747Z,10.60
2022-10-12T20:05:46.488Z,10.60
2022-10-12T20:10:49.941Z,10.70
2022-10-12T20:15:55.115Z,10.50
2022-10-12T20:20:58.974Z,10.50
2022-10-12T20:26:07.520Z,10.30
2022-10-12T20:31:13.380Z,10.10
2022-10-12T20:36:25.895Z,10.10
2022-10-12T20:41:29.404Z,10.00
2022-10-12T20:46:38.570Z,10.00
2022-10-12T20:51:45.221Z,9.80
2022-10-12T20:56:52.038Z,9.60
2022-10-12T21:01:59.063Z,9.60
2022-10-12T21:07:06.669Z,9.60
2022-10-12T21:12:12.056Z,9.50
2022-10-12T21:17:18.558Z,9.40
2022-10-12T21:22:21.818Z,9.30
2022-10-12T21:27:32.737Z,9.30
2022-10-12T21:32:37.391Z,9.20
2022-10-12T21:37:41.020Z,9.10
2022-10-12T21:42:44.213Z,9.10
2022-10-12T21:47:49.110Z,9.00
2022-10-12T21:53:00.434Z,8.90
2022-10-12T21:58:03.825Z,8.90
2022-10-12T22:09:00.240Z,8.60
2022-10-12T22:14:05.763Z,8.60
2022-10-12T22:19:14.438Z,8.60
2022-10-12T22:24:17.839Z,8.50
2022-10-12T22:29:22.089Z,8.50
2022-10-12T22:34:26.774Z,8.50
2022-10-12T22:39:29.956Z,8.40
2022-10-12T22:44:33.246Z,8.40
2022-10-12T22:49:37.901Z,8.30
2022-10-12T22:54:41.260Z,8.40
2022-10-12T22:59:49.546Z,8.40
2022-10-12T23:04:54.222Z,8.30
2022-10-12T23:09:57.521Z,8.20
2022-10-12T23:15:01.104Z,8.20
2022-10-12T23:20:06.830Z,8.20
2022-10-12T23:25:17.635Z,8.20
2022-10-12T23:30:23.404Z,8.10
2022-10-12T23:35:28.138Z,8.00
2022-10-12T23:40:31.423Z,7.90
2022-10-12T23:45:34.739Z,8.00
2022-10-12T23:50:39.577Z,8.00
2022-10-12T23:55:43.083Z,7.90
